sensor_id;sensor_type;location;lat;lon;timestamp;P1;durP1;ratioP1;P2;durP2;ratioP2
54815;SDS011;40715;55.752;37.884;2022-08-11T08:23:06;13.43;;;12.83;;
54815;SDS011;40715;55.752;37.884;2022-08-11T08:25:34;15.38;;;14.68;;
54815;SDS011;40715;55.752;37.884;2022-08-11T08:28:11;18.33;;;17.52;;
54815;SDS011;40715;55.752;37.884;2022-08-11T08:30:44;22.55;;;21.55;;
54815;SDS011;40715;55.752;37.884;2022-08-11T08:33:24;22.15;;;21.15;;
54815;SDS011;40715;55.752;37.884;2022-08-11T08:35:58;27.23;;;26.02;;
54815;SDS011;40715;55.752;37.884;2022-08-11T08:38:38;25.17;;;24.08;;
54815;SDS011;40715;55.752;37.884;2022-08-11T08:41:06;21.75;;;20.80;;
54815;SDS011;40715;55.752;37.884;2022-08-11T08:43:35;16.73;;;16.02;;
54815;SDS011;40715;55.752;37.884;2022-08-11T08:46:12;11.98;;;11.48;;
54815;SDS011;40715;55.752;37.884;2022-08-11T08:48:41;6.00;;;5.80;;
54815;SDS011;40715;55.752;37.884;2022-08-11T08:51:11;3.70;;;3.60;;
54815;SDS011;40715;55.752;37.884;2022-08-11T08:54:28;1.70;;;1.70;;
54815;SDS011;40715;55.752;37.884;2022-08-11T08:56:59;2.00;;;2.00;;
54815;SDS011;40715;55.752;37.884;2022-08-11T08:59:31;2.60;;;2.50;;
54815;SDS011;40715;55.752;37.884;2022-08-11T09:02:04;3.28;;;3.17;;
54815;SDS011;40715;55.752;37.884;2022-08-11T09:04:32;3.20;;;3.10;;
54815;SDS011;40715;55.752;37.884;2022-08-11T09:07:05;3.40;;;3.30;;
54815;SDS011;40715;55.752;37.884;2022-08-11T09:09:34;2.40;;;2.30;;
54815;SDS011;40715;55.752;37.884;2022-08-11T09:12:02;2.63;;;2.53;;
54815;SDS011;40715;55.752;37.884;2022-08-11T09:14:35;2.70;;;2.60;;
54815;SDS011;40715;55.752;37.884;2022-08-11T09:17:22;3.53;;;3.42;;
54815;SDS011;40715;55.752;37.884;2022-08-11T09:19:54;5.38;;;5.18;;
54815;SDS011;40715;55.752;37.884;2022-08-11T09:22:27;7.18;;;6.88;;
54815;SDS011;40715;55.752;37.884;2022-08-11T09:25:35;11.15;;;10.65;;
54815;SDS011;40715;55.752;37.884;2022-08-11T09:28:21;12.85;;;12.25;;
54815;SDS011;40715;55.752;37.884;2022-08-11T09:30:50;19.05;;;18.25;;
54815;SDS011;40715;55.752;37.884;2022-08-11T09:33:22;21.73;;;20.77;;
54815;SDS011;40715;55.752;37.884;2022-08-11T09:35:50;25.88;;;24.77;;
54815;SDS011;40715;55.752;37.884;2022-08-11T09:38:19;28.42;;;27.23;;
54815;SDS011;40715;55.752;37.884;2022-08-11T09:41:12;26.70;;;25.50;;
54815;SDS011;40715;55.752;37.884;2022-08-11T09:43:44;26.60;;;25.40;;
54815;SDS011;40715;55.752;37.884;2022-08-11T09:46:31;28.27;;;27.08;;
54815;SDS011;40715;55.752;37.884;2022-08-11T09:48:59;28.80;;;27.55;;
54815;SDS011;40715;55.752;37.884;2022-08-11T09:51:29;27.60;;;26.40;;
54815;SDS011;40715;55.752;37.884;2022-08-11T09:54:01;24.95;;;23.85;;
54815;SDS011;40715;55.752;37.884;2022-08-11T09:56:33;14.25;;;13.65;;
54815;SDS011;40715;55.752;37.884;2022-08-11T09:59:19;7.07;;;6.78;;
54815;SDS011;40715;55.752;37.884;2022-08-11T10:01:55;3.88;;;3.78;;
54815;SDS011;40715;55.752;37.884;2022-08-11T10:04:25;2.00;;;2.00;;
54815;SDS011;40715;55.752;37.884;2022-08-11T10:07:01;1.20;;;1.20;;
54815;SDS011;40715;55.752;37.884;2022-08-11T10:09:44;0.80;;;0.80;;
54815;SDS011;40715;55.752;37.884;2022-08-11T10:12:22;0.60;;;0.60;;
54815;SDS011;40715;55.752;37.884;2022-08-11T10:14:53;0.40;;;0.40;;
54815;SDS011;40715;55.752;37.884;2022-08-11T10:17:43;0.28;;;0.28;;
54815;SDS011;40715;55.752;37.884;2022-08-11T10:20:34;0.20;;;0.20;;
54815;SDS011;40715;55.752;37.884;2022-08-11T10:23:03;0.10;;;0.10;;
54815;SDS011;40715;55.752;37.884;2022-08-11T10:25:49;0.10;;;0.10;;
54815;SDS011;40715;55.752;37.884;2022-08-11T10:28:35;0.00;;;0.00;;
54815;SDS011;40715;55.752;37.884;2022-08-11T10:31:22;0.00;;;0.00;;
54815;SDS011;40715;55.752;37.884;2022-08-11T10:34:10;0.00;;;0.00;;
54815;SDS011;40715;55.752;37.884;2022-08-11T10:36:39;0.00;;;0.00;;
54815;SDS011;40715;55.752;37.884;2022-08-11T10:39:16;0.00;;;0.00;;
54815;SDS011;40715;55.752;37.884;2022-08-11T10:41:46;0.00;;;0.00;;
54815;SDS011;40715;55.752;37.884;2022-08-11T10:44:39;0.00;;;0.00;;
54815;SDS011;40715;55.752;37.884;2022-08-11T10:47:12;0.00;;;0.00;;
54815;SDS011;40715;55.752;37.884;2022-08-11T10:50:09;0.08;;;0.08;;
54815;SDS011;40715;55.752;37.884;2022-08-11T10:52:57;0.00;;;0.00;;
54815;SDS011;40715;55.752;37.884;2022-08-11T10:55:45;0.00;;;0.00;;
54815;SDS011;40715;55.752;37.884;2022-08-11T10:58:31;0.00;;;0.00;;
54815;SDS011;40715;55.752;37.884;2022-08-11T11:01:13;0.00;;;0.00;;
54815;SDS011;40715;55.752;37.884;2022-08-11T11:03:44;0.00;;;0.00;;
54815;SDS011;40715;55.752;37.884;2022-08-11T11:06:20;0.00;;;0.00;;
54815;SDS011;40715;55.752;37.884;2022-08-11T11:09:07;0.00;;;0.00;;
54815;SDS011;40715;55.752;37.884;2022-08-11T11:11:46;0.00;;;0.00;;
54815;SDS011;40715;55.752;37.884;2022-08-11T11:14:35;0.00;;;0.00;;
54815;SDS011;40715;55.752;37.884;2022-08-11T11:17:36;0.00;;;0.00;;
54815;SDS011;40715;55.752;37.884;2022-08-11T11:20:22;0.00;;;0.00;;
54815;SDS011;40715;55.752;37.884;2022-08-11T11:32:22;0.00;;;0.00;;
54815;SDS011;40715;55.752;37.884;2022-08-11T11:37:52;0.00;;;0.00;;
54815;SDS011;40715;55.752;37.884;2022-08-11T11:40:29;0.00;;;0.00;;
54815;SDS011;40715;55.752;37.884;2022-08-11T11:43:00;0.00;;;0.00;;
54815;SDS011;40715;55.752;37.884;2022-08-11T11:45:28;0.00;;;0.00;;
54815;SDS011;40715;55.752;37.884;2022-08-11T11:47:56;0.00;;;0.00;;
54815;SDS011;40715;55.752;37.884;2022-08-11T11:50:29;0.00;;;0.00;;
54815;SDS011;40715;55.752;37.884;2022-08-11T11:53:03;0.00;;;0.00;;
54815;SDS011;40715;55.752;37.884;2022-08-11T11:55:32;0.00;;;0.00;;
54815;SDS011;40715;55.752;37.884;2022-08-11T11:58:02;0.00;;;0.00;;
54815;SDS011;40715;55.752;37.884;2022-08-11T12:04:22;0.00;;;0.00;;
54815;SDS011;40715;55.752;37.884;2022-08-11T12:06:50;0.00;;;0.00;;
54815;SDS011;40715;55.752;37.884;2022-08-11T12:09:37;0.00;;;0.00;;
54815;SDS011;40715;55.752;37.884;2022-08-11T12:12:06;0.00;;;0.00;;
54815;SDS011;40715;55.752;37.884;2022-08-11T12:14:52;0.00;;;0.00;;
54815;SDS011;40715;55.752;37.884;2022-08-11T12:17:20;0.00;;;0.00;;
54815;SDS011;40715;55.752;37.884;2022-08-11T12:19:48;0.00;;;0.00;;
54815;SDS011;40715;55.752;37.884;2022-08-11T12:22:16;0.10;;;0.10;;
54815;SDS011;40715;55.752;37.884;2022-08-11T12:25:07;0.00;;;0.00;;
54815;SDS011;40715;55.752;37.884;2022-08-11T12:27:54;0.00;;;0.00;;
54815;SDS011;40715;55.752;37.884;2022-08-11T12:30:24;0.00;;;0.00;;
54815;SDS011;40715;55.752;37.884;2022-08-11T12:32:51;0.10;;;0.00;;
54815;SDS011;40715;55.752;37.884;2022-08-11T12:35:19;0.00;;;0.00;;
54815;SDS011;40715;55.752;37.884;2022-08-11T12:37:50;0.00;;;0.00;;
54815;SDS011;40715;55.752;37.884;2022-08-11T12:40:28;0.00;;;0.00;;
54815;SDS011;40715;55.752;37.884;2022-08-11T12:43:35;0.00;;;0.00;;
54815;SDS011;40715;55.752;37.884;2022-08-11T12:46:23;0.00;;;0.00;;
54815;SDS011;40715;55.752;37.884;2022-08-11T12:48:55;0.00;;;0.00;;
54815;SDS011;40715;55.752;37.884;2022-08-11T12:51:50;0.00;;;0.00;;
54815;SDS011;40715;55.752;37.884;2022-08-11T13:00:08;0.00;;;0.00;;
54815;SDS011;40715;55.752;37.884;2022-08-11T13:02:54;0.00;;;0.00;;
54815;SDS011;40715;55.752;37.884;2022-08-11T13:05:41;0.00;;;0.00;;
54815;SDS011;40715;55.752;37.884;2022-08-11T13:08:10;0.00;;;0.00;;
54815;SDS011;40715;55.752;37.884;2022-08-11T13:10:40;0.00;;;0.00;;
54815;SDS011;40715;55.752;37.884;2022-08-11T13:13:27;0.17;;;0.00;;
54815;SDS011;40715;55.752;37.884;2022-08-11T13:16:15;0.00;;;0.00;;
54815;SDS011;40715;55.752;37.884;2022-08-11T13:18:43;0.00;;;0.00;;
54815;SDS011;40715;55.752;37.884;2022-08-11T13:21:11;0.00;;;0.00;;
54815;SDS011;40715;55.752;37.884;2022-08-11T13:23:45;0.00;;;0.00;;
54815;SDS011;40715;55.752;37.884;2022-08-11T13:26:28;0.00;;;0.00;;
54815;SDS011;40715;55.752;37.884;2022-08-11T13:29:08;0.00;;;0.00;;
54815;SDS011;40715;55.752;37.884;2022-08-11T13:31:36;0.00;;;0.00;;
54815;SDS011;40715;55.752;37.884;2022-08-11T13:34:04;0.00;;;0.00;;
54815;SDS011;40715;55.752;37.884;2022-08-11T13:36:34;0.00;;;0.00;;
54815;SDS011;40715;55.752;37.884;2022-08-11T13:39:02;0.00;;;0.00;;
54815;SDS011;40715;55.752;37.884;2022-08-11T13:41:29;0.00;;;0.00;;
54815;SDS011;40715;55.752;37.884;2022-08-11T13:44:08;0.00;;;0.00;;
54815;SDS011;40715;55.752;37.884;2022-08-11T13:46:38;0.00;;;0.00;;
54815;SDS011;40715;55.752;37.884;2022-08-11T13:49:06;0.00;;;0.00;;
54815;SDS011;40715;55.752;37.884;2022-08-11T13:51:36;0.00;;;0.00;;
54815;SDS011;40715;55.752;37.884;2022-08-11T13:54:06;0.00;;;0.00;;
54815;SDS011;40715;55.752;37.884;2022-08-11T13:56:41;0.00;;;0.00;;
54815;SDS011;40715;55.752;37.884;2022-08-11T13:59:11;0.00;;;0.00;;
54815;SDS011;40715;55.752;37.884;2022-08-11T14:01:41;0.00;;;0.00;;
54815;SDS011;40715;55.752;37.884;2022-08-11T14:04:31;0.00;;;0.00;;
54815;SDS011;40715;55.752;37.884;2022-08-11T14:07:05;0.00;;;0.00;;
54815;SDS011;40715;55.752;37.884;2022-08-11T14:09:36;0.00;;;0.00;;
54815;SDS011;40715;55.752;37.884;2022-08-11T14:12:16;0.00;;;0.00;;
54815;SDS011;40715;55.752;37.884;2022-08-11T14:15:15;0.00;;;0.00;;
54815;SDS011;40715;55.752;37.884;2022-08-11T14:17:47;0.00;;;0.00;;
54815;SDS011;40715;55.752;37.884;2022-08-11T14:20:19;0.00;;;0.00;;
54815;SDS011;40715;55.752;37.884;2022-08-11T14:23:05;0.00;;;0.00;;
54815;SDS011;40715;55.752;37.884;2022-08-11T14:25:34;0.00;;;0.00;;
54815;SDS011;40715;55.752;37.884;2022-08-11T14:28:21;0.00;;;0.00;;
54815;SDS011;40715;55.752;37.884;2022-08-11T14:33:27;0.00;;;0.00;;
54815;SDS011;40715;55.752;37.884;2022-08-11T14:35:56;0.00;;;0.00;;
54815;SDS011;40715;55.752;37.884;2022-08-11T14:38:23;0.00;;;0.00;;
54815;SDS011;40715;55.752;37.884;2022-08-11T14:40:50;0.00;;;0.00;;
54815;SDS011;40715;55.752;37.884;2022-08-11T14:43:36;0.00;;;0.00;;
54815;SDS011;40715;55.752;37.884;2022-08-11T14:46:30;0.00;;;0.00;;
54815;SDS011;40715;55.752;37.884;2022-08-11T14:49:18;0.00;;;0.00;;
54815;SDS011;40715;55.752;37.884;2022-08-11T14:51:45;0.00;;;0.00;;
54815;SDS011;40715;55.752;37.884;2022-08-11T14:54:14;0.00;;;0.00;;
54815;SDS011;40715;55.752;37.884;2022-08-11T14:57:00;0.10;;;0.00;;
54815;SDS011;40715;55.752;37.884;2022-08-11T14:59:28;0.00;;;0.00;;
54815;SDS011;40715;55.752;37.884;2022-08-11T15:01:56;0.00;;;0.00;;
54815;SDS011;40715;55.752;37.884;2022-08-11T15:04:42;0.00;;;0.00;;
54815;SDS011;40715;55.752;37.884;2022-08-11T15:07:09;0.00;;;0.00;;
54815;SDS011;40715;55.752;37.884;2022-08-11T15:09:39;0.00;;;0.00;;
54815;SDS011;40715;55.752;37.884;2022-08-11T15:12:29;0.03;;;0.00;;
54815;SDS011;40715;55.752;37.884;2022-08-11T15:14:59;0.00;;;0.00;;
54815;SDS011;40715;55.752;37.884;2022-08-11T15:17:45;0.00;;;0.00;;
54815;SDS011;40715;55.752;37.884;2022-08-11T15:20:17;0.00;;;0.00;;
54815;SDS011;40715;55.752;37.884;2022-08-11T15:23:03;0.00;;;0.00;;
54815;SDS011;40715;55.752;37.884;2022-08-11T15:25:52;0.00;;;0.00;;
54815;SDS011;40715;55.752;37.884;2022-08-11T15:28:26;0.10;;;0.00;;
54815;SDS011;40715;55.752;37.884;2022-08-11T15:31:14;0.00;;;0.00;;
54815;SDS011;40715;55.752;37.884;2022-08-11T15:33:56;0.00;;;0.00;;
54815;SDS011;40715;55.752;37.884;2022-08-11T15:36:47;0.00;;;0.00;;
54815;SDS011;40715;55.752;37.884;2022-08-11T15:39:37;0.00;;;0.00;;
54815;SDS011;40715;55.752;37.884;2022-08-11T15:42:57;0.00;;;0.00;;
54815;SDS011;40715;55.752;37.884;2022-08-11T15:45:54;0.17;;;0.00;;
54815;SDS011;40715;55.752;37.884;2022-08-11T15:48:29;0.00;;;0.00;;
54815;SDS011;40715;55.752;37.884;2022-08-11T15:51:20;0.00;;;0.00;;
54815;SDS011;40715;55.752;37.884;2022-08-11T15:53:58;0.00;;;0.00;;
54815;SDS011;40715;55.752;37.884;2022-08-11T15:56:34;0.00;;;0.00;;
54815;SDS011;40715;55.752;37.884;2022-08-11T15:59:07;0.00;;;0.00;;
54815;SDS011;40715;55.752;37.884;2022-08-11T16:02:08;0.00;;;0.00;;
54815;SDS011;40715;55.752;37.884;2022-08-11T16:04:53;0.00;;;0.00;;
54815;SDS011;40715;55.752;37.884;2022-08-11T16:07:22;0.00;;;0.00;;
54815;SDS011;40715;55.752;37.884;2022-08-11T16:09:57;0.00;;;0.00;;
54815;SDS011;40715;55.752;37.884;2022-08-11T16:12:31;0.00;;;0.00;;
54815;SDS011;40715;55.752;37.884;2022-08-11T16:15:05;0.00;;;0.00;;
54815;SDS011;40715;55.752;37.884;2022-08-11T16:18:00;0.00;;;0.00;;
54815;SDS011;40715;55.752;37.884;2022-08-11T16:20:30;0.00;;;0.00;;
54815;SDS011;40715;55.752;37.884;2022-08-11T16:23:00;0.00;;;0.00;;
54815;SDS011;40715;55.752;37.884;2022-08-11T16:25:33;0.00;;;0.00;;
54815;SDS011;40715;55.752;37.884;2022-08-11T16:28:21;0.00;;;0.00;;
54815;SDS011;40715;55.752;37.884;2022-08-11T16:30:49;0.00;;;0.00;;
54815;SDS011;40715;55.752;37.884;2022-08-11T16:33:19;0.00;;;0.00;;
54815;SDS011;40715;55.752;37.884;2022-08-11T16:36:09;0.00;;;0.00;;
54815;SDS011;40715;55.752;37.884;2022-08-11T16:38:57;0.00;;;0.00;;
54815;SDS011;40715;55.752;37.884;2022-08-11T16:41:26;0.00;;;0.00;;
54815;SDS011;40715;55.752;37.884;2022-08-11T16:44:16;0.00;;;0.00;;
54815;SDS011;40715;55.752;37.884;2022-08-11T16:47:07;0.00;;;0.00;;
54815;SDS011;40715;55.752;37.884;2022-08-11T16:49:38;0.00;;;0.00;;
54815;SDS011;40715;55.752;37.884;2022-08-11T16:52:18;0.00;;;0.00;;
54815;SDS011;40715;55.752;37.884;2022-08-11T16:54:46;0.00;;;0.00;;
54815;SDS011;40715;55.752;37.884;2022-08-11T16:57:14;0.00;;;0.00;;
54815;SDS011;40715;55.752;37.884;2022-08-11T17:00:03;0.00;;;0.00;;
54815;SDS011;40715;55.752;37.884;2022-08-11T17:02:34;0.00;;;0.00;;
54815;SDS011;40715;55.752;37.884;2022-08-11T17:05:23;0.00;;;0.00;;
54815;SDS011;40715;55.752;37.884;2022-08-11T17:08:20;0.00;;;0.00;;
54815;SDS011;40715;55.752;37.884;2022-08-11T17:11:22;0.00;;;0.00;;
54815;SDS011;40715;55.752;37.884;2022-08-11T17:14:12;0.00;;;0.00;;
54815;SDS011;40715;55.752;37.884;2022-08-11T17:17:01;0.00;;;0.00;;
54815;SDS011;40715;55.752;37.884;2022-08-11T17:19:32;0.03;;;0.00;;
54815;SDS011;40715;55.752;37.884;2022-08-11T17:22:24;0.00;;;0.00;;
54815;SDS011;40715;55.752;37.884;2022-08-11T17:25:12;0.00;;;0.00;;
54815;SDS011;40715;55.752;37.884;2022-08-11T17:27:41;0.00;;;0.00;;
54815;SDS011;40715;55.752;37.884;2022-08-11T17:30:11;0.00;;;0.00;;
54815;SDS011;40715;55.752;37.884;2022-08-11T17:32:41;0.00;;;0.00;;
54815;SDS011;40715;55.752;37.884;2022-08-11T17:35:38;0.00;;;0.00;;
54815;SDS011;40715;55.752;37.884;2022-08-11T17:40:37;0.00;;;0.00;;
54815;SDS011;40715;55.752;37.884;2022-08-11T17:43:27;0.00;;;0.00;;
54815;SDS011;40715;55.752;37.884;2022-08-11T17:46:14;0.00;;;0.00;;
54815;SDS011;40715;55.752;37.884;2022-08-11T17:51:28;0.00;;;0.00;;
54815;SDS011;40715;55.752;37.884;2022-08-11T17:54:15;0.00;;;0.00;;
54815;SDS011;40715;55.752;37.884;2022-08-11T17:57:02;0.00;;;0.00;;
54815;SDS011;40715;55.752;37.884;2022-08-11T17:59:48;0.00;;;0.00;;
54815;SDS011;40715;55.752;37.884;2022-08-11T18:02:19;0.00;;;0.00;;
54815;SDS011;40715;55.752;37.884;2022-08-11T18:05:14;0.00;;;0.00;;
54815;SDS011;40715;55.752;37.884;2022-08-11T18:07:45;0.03;;;0.00;;
54815;SDS011;40715;55.752;37.884;2022-08-11T18:10:32;0.00;;;0.00;;
54815;SDS011;40715;55.752;37.884;2022-08-11T18:13:20;0.10;;;0.00;;
54815;SDS011;40715;55.752;37.884;2022-08-11T18:16:08;0.00;;;0.00;;
54815;SDS011;40715;55.752;37.884;2022-08-11T18:18:54;0.00;;;0.00;;
54815;SDS011;40715;55.752;37.884;2022-08-11T18:21:40;0.00;;;0.00;;
54815;SDS011;40715;55.752;37.884;2022-08-11T18:24:45;0.00;;;0.00;;
54815;SDS011;40715;55.752;37.884;2022-08-11T18:27:35;0.00;;;0.00;;
54815;SDS011;40715;55.752;37.884;2022-08-11T18:30:24;0.20;;;0.00;;
54815;SDS011;40715;55.752;37.884;2022-08-11T18:33:12;0.00;;;0.00;;
54815;SDS011;40715;55.752;37.884;2022-08-11T18:36:21;0.00;;;0.00;;
54815;SDS011;40715;55.752;37.884;2022-08-11T18:39:12;0.00;;;0.00;;
54815;SDS011;40715;55.752;37.884;2022-08-11T18:42:00;0.08;;;0.00;;
54815;SDS011;40715;55.752;37.884;2022-08-11T18:44:56;0.00;;;0.00;;
54815;SDS011;40715;55.752;37.884;2022-08-11T18:47:46;0.00;;;0.00;;
54815;SDS011;40715;55.752;37.884;2022-08-11T18:50:36;0.00;;;0.00;;
54815;SDS011;40715;55.752;37.884;2022-08-11T18:53:46;0.00;;;0.00;;
54815;SDS011;40715;55.752;37.884;2022-08-11T18:56:35;0.00;;;0.00;;
54815;SDS011;40715;55.752;37.884;2022-08-11T18:59:22;0.00;;;0.00;;
54815;SDS011;40715;55.752;37.884;2022-08-11T19:02:10;0.00;;;0.00;;
54815;SDS011;40715;55.752;37.884;2022-08-11T19:04:58;0.00;;;0.00;;
54815;SDS011;40715;55.752;37.884;2022-08-11T19:07:45;0.00;;;0.00;;
54815;SDS011;40715;55.752;37.884;2022-08-11T19:10:34;0.00;;;0.00;;
54815;SDS011;40715;55.752;37.884;2022-08-11T19:13:19;0.00;;;0.00;;
54815;SDS011;40715;55.752;37.884;2022-08-11T19:16:09;0.00;;;0.00;;
54815;SDS011;40715;55.752;37.884;2022-08-11T19:18:56;0.00;;;0.00;;
54815;SDS011;40715;55.752;37.884;2022-08-11T19:21:43;0.00;;;0.00;;
54815;SDS011;40715;55.752;37.884;2022-08-11T19:27:16;0.00;;;0.00;;
54815;SDS011;40715;55.752;37.884;2022-08-11T19:30:04;0.00;;;0.00;;
54815;SDS011;40715;55.752;37.884;2022-08-11T19:32:50;0.00;;;0.00;;
54815;SDS011;40715;55.752;37.884;2022-08-11T19:35:36;0.00;;;0.00;;
54815;SDS011;40715;55.752;37.884;2022-08-11T19:38:22;0.10;;;0.00;;
54815;SDS011;40715;55.752;37.884;2022-08-11T19:41:10;0.20;;;0.00;;
54815;SDS011;40715;55.752;37.884;2022-08-11T19:44:16;0.00;;;0.00;;
54815;SDS011;40715;55.752;37.884;2022-08-11T19:47:05;0.00;;;0.00;;
54815;SDS011;40715;55.752;37.884;2022-08-11T19:49:52;0.00;;;0.00;;
54815;SDS011;40715;55.752;37.884;2022-08-11T19:52:42;0.00;;;0.00;;
54815;SDS011;40715;55.752;37.884;2022-08-11T19:55:29;0.00;;;0.00;;
54815;SDS011;40715;55.752;37.884;2022-08-11T19:58:15;0.00;;;0.00;;
54815;SDS011;40715;55.752;37.884;2022-08-11T20:01:02;0.00;;;0.00;;
54815;SDS011;40715;55.752;37.884;2022-08-11T20:03:49;0.00;;;0.00;;
54815;SDS011;40715;55.752;37.884;2022-08-11T20:06:34;0.00;;;0.00;;
54815;SDS011;40715;55.752;37.884;2022-08-11T20:09:21;0.00;;;0.00;;
54815;SDS011;40715;55.752;37.884;2022-08-11T20:12:26;0.00;;;0.00;;
54815;SDS011;40715;55.752;37.884;2022-08-11T20:15:15;0.00;;;0.00;;
54815;SDS011;40715;55.752;37.884;2022-08-11T20:18:04;0.00;;;0.00;;
54815;SDS011;40715;55.752;37.884;2022-08-11T20:20:52;0.00;;;0.00;;
54815;SDS011;40715;55.752;37.884;2022-08-11T20:23:42;0.00;;;0.00;;
54815;SDS011;40715;55.752;37.884;2022-08-11T20:26:33;0.00;;;0.00;;
54815;SDS011;40715;55.752;37.884;2022-08-11T20:29:20;0.00;;;0.00;;
54815;SDS011;40715;55.752;37.884;2022-08-11T20:32:11;0.00;;;0.00;;
54815;SDS011;40715;55.752;37.884;2022-08-11T20:34:58;0.00;;;0.00;;
54815;SDS011;40715;55.752;37.884;2022-08-11T20:37:46;0.00;;;0.00;;
54815;SDS011;40715;55.752;37.884;2022-08-11T20:40:37;0.00;;;0.00;;
54815;SDS011;40715;55.752;37.884;2022-08-11T20:43:24;0.00;;;0.00;;
54815;SDS011;40715;55.752;37.884;2022-08-11T20:46:30;0.00;;;0.00;;
54815;SDS011;40715;55.752;37.884;2022-08-11T20:49:16;0.00;;;0.00;;
54815;SDS011;40715;55.752;37.884;2022-08-11T20:52:06;0.00;;;0.00;;
54815;SDS011;40715;55.752;37.884;2022-08-11T20:54:52;0.00;;;0.00;;
54815;SDS011;40715;55.752;37.884;2022-08-11T20:57:44;0.00;;;0.00;;
54815;SDS011;40715;55.752;37.884;2022-08-11T21:00:31;0.00;;;0.00;;
54815;SDS011;40715;55.752;37.884;2022-08-11T21:03:19;0.00;;;0.00;;
54815;SDS011;40715;55.752;37.884;2022-08-11T21:06:11;0.00;;;0.00;;
54815;SDS011;40715;55.752;37.884;2022-08-11T21:09:00;0.00;;;0.00;;
54815;SDS011;40715;55.752;37.884;2022-08-11T21:12:08;0.00;;;0.00;;
54815;SDS011;40715;55.752;37.884;2022-08-11T21:14:56;0.00;;;0.00;;
54815;SDS011;40715;55.752;37.884;2022-08-11T21:17:47;0.00;;;0.00;;
54815;SDS011;40715;55.752;37.884;2022-08-11T21:20:36;0.00;;;0.00;;
54815;SDS011;40715;55.752;37.884;2022-08-11T21:23:26;0.00;;;0.00;;
54815;SDS011;40715;55.752;37.884;2022-08-11T21:26:17;0.00;;;0.00;;
54815;SDS011;40715;55.752;37.884;2022-08-11T21:29:06;0.00;;;0.00;;
54815;SDS011;40715;55.752;37.884;2022-08-11T21:31:54;0.00;;;0.00;;
54815;SDS011;40715;55.752;37.884;2022-08-11T21:34:41;0.00;;;0.00;;
54815;SDS011;40715;55.752;37.884;2022-08-11T21:37:28;0.00;;;0.00;;
54815;SDS011;40715;55.752;37.884;2022-08-11T21:40:15;0.00;;;0.00;;
54815;SDS011;40715;55.752;37.884;2022-08-11T21:43:03;0.00;;;0.00;;
54815;SDS011;40715;55.752;37.884;2022-08-11T21:45:50;0.00;;;0.00;;
54815;SDS011;40715;55.752;37.884;2022-08-11T21:48:37;0.00;;;0.00;;
54815;SDS011;40715;55.752;37.884;2022-08-11T21:51:24;0.03;;;0.00;;
54815;SDS011;40715;55.752;37.884;2022-08-11T21:54:10;0.00;;;0.00;;
54815;SDS011;40715;55.752;37.884;2022-08-11T21:56:56;0.00;;;0.00;;
54815;SDS011;40715;55.752;37.884;2022-08-11T22:02:36;0.00;;;0.00;;
54815;SDS011;40715;55.752;37.884;2022-08-11T22:05:23;0.00;;;0.00;;
54815;SDS011;40715;55.752;37.884;2022-08-11T22:08:10;0.00;;;0.00;;
54815;SDS011;40715;55.752;37.884;2022-08-11T22:10:57;0.00;;;0.00;;
54815;SDS011;40715;55.752;37.884;2022-08-11T22:13:58;0.00;;;0.00;;
54815;SDS011;40715;55.752;37.884;2022-08-11T22:16:46;0.00;;;0.00;;
54815;SDS011;40715;55.752;37.884;2022-08-11T22:19:32;0.00;;;0.00;;
54815;SDS011;40715;55.752;37.884;2022-08-11T22:22:20;0.00;;;0.00;;
54815;SDS011;40715;55.752;37.884;2022-08-11T22:25:17;0.00;;;0.00;;
54815;SDS011;40715;55.752;37.884;2022-08-11T22:28:04;0.00;;;0.00;;
54815;SDS011;40715;55.752;37.884;2022-08-11T22:30:49;0.00;;;0.00;;
54815;SDS011;40715;55.752;37.884;2022-08-11T22:33:35;0.00;;;0.00;;
54815;SDS011;40715;55.752;37.884;2022-08-11T22:36:28;0.00;;;0.00;;
54815;SDS011;40715;55.752;37.884;2022-08-11T22:39:14;0.00;;;0.00;;
54815;SDS011;40715;55.752;37.884;2022-08-11T22:42:00;0.00;;;0.00;;
54815;SDS011;40715;55.752;37.884;2022-08-11T22:44:49;0.00;;;0.00;;
54815;SDS011;40715;55.752;37.884;2022-08-11T22:47:34;0.00;;;0.00;;
54815;SDS011;40715;55.752;37.884;2022-08-11T22:50:21;0.00;;;0.00;;
54815;SDS011;40715;55.752;37.884;2022-08-11T22:53:06;0.20;;;0.00;;
54815;SDS011;40715;55.752;37.884;2022-08-11T22:55:52;0.00;;;0.00;;
54815;SDS011;40715;55.752;37.884;2022-08-11T22:58:38;0.00;;;0.00;;
54815;SDS011;40715;55.752;37.884;2022-08-11T23:01:24;0.00;;;0.00;;
54815;SDS011;40715;55.752;37.884;2022-08-11T23:04:20;0.00;;;0.00;;
54815;SDS011;40715;55.752;37.884;2022-08-11T23:07:06;0.00;;;0.00;;
54815;SDS011;40715;55.752;37.884;2022-08-11T23:10:13;0.00;;;0.00;;
54815;SDS011;40715;55.752;37.884;2022-08-11T23:12:59;0.00;;;0.00;;
54815;SDS011;40715;55.752;37.884;2022-08-11T23:15:47;0.00;;;0.00;;
54815;SDS011;40715;55.752;37.884;2022-08-11T23:18:34;0.00;;;0.00;;
54815;SDS011;40715;55.752;37.884;2022-08-11T23:21:19;0.00;;;0.00;;
54815;SDS011;40715;55.752;37.884;2022-08-11T23:24:05;0.00;;;0.00;;
54815;SDS011;40715;55.752;37.884;2022-08-11T23:26:51;0.00;;;0.00;;
54815;SDS011;40715;55.752;37.884;2022-08-11T23:29:38;0.00;;;0.00;;
54815;SDS011;40715;55.752;37.884;2022-08-11T23:32:25;0.00;;;0.00;;
54815;SDS011;40715;55.752;37.884;2022-08-11T23:35:13;0.00;;;0.00;;
54815;SDS011;40715;55.752;37.884;2022-08-11T23:38:02;0.00;;;0.00;;
54815;SDS011;40715;55.752;37.884;2022-08-11T23:40:48;0.00;;;0.00;;
54815;SDS011;40715;55.752;37.884;2022-08-11T23:43:33;0.00;;;0.00;;
54815;SDS011;40715;55.752;37.884;2022-08-11T23:46:20;0.00;;;0.00;;
54815;SDS011;40715;55.752;37.884;2022-08-11T23:49:09;0.00;;;0.00;;
54815;SDS011;40715;55.752;37.884;2022-08-11T23:51:54;0.00;;;0.00;;
54815;SDS011;40715;55.752;37.884;2022-08-11T23:54:41;0.00;;;0.00;;
54815;SDS011;40715;55.752;37.884;2022-08-11T23:57:29;0.00;;;0.00;;
